Time,TemperatureF,DewpointF,PressureIn,WindDirection,WindDirectionDegrees,WindSpeedMPH,WindSpeedGustMPH,Humidity,HourlyPrecipIn,Conditions,Clouds,dailyrainin,SoftwareType,DateUTC
2013-02-26 00:13:00,19.4,16.7,29.96,ESE,112,0.0,-999.0,89,-99.99,,,0.00,Acu-Link.com,2013-02-26 08:13:00,
2013-02-26 00:28:00,19.4,16.7,29.96,SE,135,0.0,-999.0,89,-99.99,,,0.00,Acu-Link.com,2013-02-26 08:28:00,
2013-02-26 00:43:00,19.4,16.7,29.96,ENE,67,0.0,-999.0,89,-99.99,,,0.00,Acu-Link.com,2013-02-26 08:43:00,
2013-02-26 04:04:00,14.0,10.3,29.97,SSE,157,0.0,-999.0,85,-99.99,,,0.00,Acu-Link.com,2013-02-26 12:04:00,
2013-02-26 04:20:00,14.0,10.6,29.98,ESE,112,0.0,-999.0,86,-99.99,,,0.00,Acu-Link.com,2013-02-26 12:20:00,
2013-02-26 04:35:00,14.0,10.6,29.98,ESE,112,0.0,-999.0,86,-99.99,,,0.00,Acu-Link.com,2013-02-26 12:35:00,
2013-02-26 04:50:00,14.0,10.6,29.98,SE,135,0.0,-999.0,86,-99.99,,,0.00,Acu-Link.com,2013-02-26 12:50:00,
2013-02-26 05:05:00,14.0,10.9,29.98,West,270,0.0,-999.0,87,-99.99,,,0.00,Acu-Link.com,2013-02-26 13:05:00,
2013-02-26 05:20:00,14.0,10.3,29.98,South,180,0.0,-999.0,85,-99.99,,,0.00,Acu-Link.com,2013-02-26 13:20:00,
2013-02-26 05:35:00,14.0,10.3,29.98,SE,135,0.0,-999.0,85,-99.99,,,0.00,Acu-Link.com,2013-02-26 13:35:00,
2013-02-26 05:50:00,14.0,10.6,29.98,SE,135,0.0,-999.0,86,-99.99,,,0.00,Acu-Link.com,2013-02-26 13:50:00,
2013-02-26 06:05:00,14.0,10.9,29.98,SE,135,0.0,-999.0,87,-99.99,,,0.00,Acu-Link.com,2013-02-26 14:05:00,
2013-02-26 06:20:00,15.8,12.9,29.98,SE,135,1.6,-999.0,88,-99.99,,,0.00,Acu-Link.com,2013-02-26 14:20:00,
2013-02-26 06:35:00,15.8,12.9,29.98,SE,135,0.0,-999.0,88,-99.99,,,0.00,Acu-Link.com,2013-02-26 14:35:00,
2013-02-26 06:50:00,14.0,10.6,29.98,SE,135,0.0,-999.0,86,-99.99,,,0.00,Acu-Link.com,2013-02-26 14:50:00,
2013-02-26 07:06:00,14.0,10.6,29.97,South,180,0.0,-999.0,86,-99.99,,,0.00,Acu-Link.com,2013-02-26 15:06:00,
2013-02-26 07:21:00,14.0,10.6,29.97,ENE,67,0.0,-999.0,86,-99.99,,,0.00,Acu-Link.com,2013-02-26 15:21:00,
2013-02-26 07:36:00,14.0,10.3,29.97,ESE,112,0.0,-999.0,85,-99.99,,,0.00,Acu-Link.com,2013-02-26 15:36:00,
2013-02-26 07:51:00,14.0,10.6,29.98,SSE,157,0.0,-999.0,86,-99.99,,,0.00,Acu-Link.com,2013-02-26 15:51:00,
2013-02-26 08:06:00,15.8,12.4,29.97,South,180,0.0,-999.0,86,-99.99,,,0.00,Acu-Link.com,2013-02-26 16:06:00,
2013-02-26 08:21:00,17.6,14.7,29.97,ESE,112,0.0,-999.0,88,-99.99,,,0.00,Acu-Link.com,2013-02-26 16:21:00,
2013-02-26 08:36:00,19.4,16.4,29.97,East,90,0.0,-999.0,88,-99.99,,,0.00,Acu-Link.com,2013-02-26 16:36:00,
2013-02-26 08:51:00,23.0,20.5,29.96,SSE,157,1.1,-999.0,90,-99.99,,,0.00,Acu-Link.com,2013-02-26 16:51:00,
2013-02-26 09:06:00,24.8,22.3,29.96,SE,135,1.6,-999.0,90,-99.99,,,0.00,Acu-Link.com,2013-02-26 17:06:00,
2013-02-26 09:21:00,26.6,23.8,29.95,WSW,247,2.0,-999.0,89,-99.99,,,0.00,Acu-Link.com,2013-02-26 17:21:00,
2013-02-26 09:37:00,28.4,25.0,29.96,SE,135,1.6,-999.0,87,-99.99,,,0.00,Acu-Link.com,2013-02-26 17:37:00,
2013-02-26 09:52:00,28.4,24.8,29.95,SE,135,0.0,-999.0,86,-99.99,,,0.00,Acu-Link.com,2013-02-26 17:52:00,
2013-02-26 10:07:00,30.2,25.4,29.94,SE,135,1.6,-999.0,82,-99.99,,,0.00,Acu-Link.com,2013-02-26 18:07:00,
2013-02-26 10:22:00,32.0,26.2,29.94,SW,225,0.0,-999.0,79,-99.99,,,0.00,Acu-Link.com,2013-02-26 18:22:00,
2013-02-26 10:37:00,32.0,25.9,29.95,SW,225,1.1,-999.0,78,-99.99,,,0.00,Acu-Link.com,2013-02-26 18:37:00,
2013-02-26 10:52:00,33.8,26.7,29.94,ESE,112,0.0,-999.0,75,-99.99,,,0.00,Acu-Link.com,2013-02-26 18:52:00,
2013-02-26 11:07:00,33.8,26.7,29.94,SE,135,1.6,-999.0,75,-99.99,,,0.00,Acu-Link.com,2013-02-26 19:07:00,
2013-02-26 11:23:00,33.8,27.1,29.94,ESE,112,2.7,-999.0,76,-99.99,,,0.00,Acu-Link.com,2013-02-26 19:23:00,
2013-02-26 11:38:00,33.8,27.7,29.94,SE,135,1.6,-999.0,78,-99.99,,,0.00,Acu-Link.com,2013-02-26 19:38:00,
2013-02-26 11:53:00,33.8,26.7,29.93,SE,135,2.0,-999.0,75,-99.99,,,0.00,Acu-Link.com,2013-02-26 19:53:00,
2013-02-26 12:08:00,33.8,27.1,29.93,SSW,202,2.7,-999.0,76,-99.99,,,0.00,Acu-Link.com,2013-02-26 20:08:00,
2013-02-26 12:24:00,35.6,28.8,29.93,ESE,112,1.6,-999.0,76,-99.99,,,0.00,Acu-Link.com,2013-02-26 20:24:00,
2013-02-26 12:39:00,35.6,27.1,29.93,West,270,4.0,-999.0,71,-99.99,,,0.00,Acu-Link.com,2013-02-26 20:39:00,
2013-02-26 12:54:00,35.6,27.8,29.93,SE,135,1.6,-999.0,73,-99.99,,,0.01,Acu-Link.com,2013-02-26 20:54:00,
2013-02-26 13:09:00,35.6,26.5,29.92,ESE,112,3.1,-999.0,69,-99.99,,,0.02,Acu-Link.com,2013-02-26 21:09:00,
2013-02-26 13:24:00,35.6,26.1,29.92,ESE,112,2.7,-999.0,68,-99.99,,,0.04,Acu-Link.com,2013-02-26 21:24:00,
2013-02-26 13:39:00,35.6,27.1,29.91,SE,135,3.1,-999.0,71,-99.99,,,0.06,Acu-Link.com,2013-02-26 21:39:00,
2013-02-26 13:54:00,35.6,26.1,29.91,ESE,112,1.6,-999.0,68,-99.99,,,0.06,Acu-Link.com,2013-02-26 21:54:00,
2013-02-26 14:09:00,35.6,25.7,29.91,SE,135,3.6,-999.0,67,-99.99,,,0.07,Acu-Link.com,2013-02-26 22:09:00,
2013-02-26 14:24:00,35.6,25.4,29.90,East,90,3.6,-999.0,66,-99.99,,,0.07,Acu-Link.com,2013-02-26 22:24:00,
2013-02-26 14:39:00,35.6,25.0,29.90,South,180,1.6,-999.0,65,-99.99,,,0.08,Acu-Link.com,2013-02-26 22:39:00,
2013-02-26 14:54:00,35.6,25.4,29.91,South,180,2.0,-999.0,66,-99.99,,,0.08,Acu-Link.com,2013-02-26 22:54:00,
2013-02-26 15:09:00,35.6,25.4,29.91,East,90,1.1,-999.0,66,-99.99,,,0.09,Acu-Link.com,2013-02-26 23:09:00,
2013-02-26 15:24:00,33.8,23.7,29.90,SE,135,2.7,-999.0,66,-99.99,,,0.09,Acu-Link.com,2013-02-26 23:24:00,
2013-02-26 15:39:00,33.8,25.4,29.91,ESE,112,3.1,-999.0,71,-99.99,,,0.09,Acu-Link.com,2013-02-26 23:39:00,
2013-02-26 15:54:00,32.0,24.3,29.91,North,0,3.6,-999.0,73,-99.99,,,0.09,Acu-Link.com,2013-02-26 23:54:00,
2013-02-26 16:09:00,32.0,25.3,29.91,SSW,202,1.6,-999.0,76,-99.99,,,0.09,Acu-Link.com,2013-02-27 00:09:00,
2013-02-26 16:24:00,32.0,25.9,29.91,SSE,157,1.1,-999.0,78,-99.99,,,0.09,Acu-Link.com,2013-02-27 00:24:00,
2013-02-26 16:40:00,32.0,26.5,29.91,ENE,67,3.1,-999.0,80,-99.99,,,0.09,Acu-Link.com,2013-02-27 00:40:00,
2013-02-26 16:55:00,32.0,27.1,29.91,West,270,2.0,-999.0,82,-99.99,,,0.09,Acu-Link.com,2013-02-27 00:55:00,
2013-02-26 17:10:00,32.0,27.4,29.90,ESE,112,2.7,-999.0,83,-99.99,,,0.09,Acu-Link.com,2013-02-27 01:10:00,
2013-02-26 17:25:00,32.0,27.4,29.90,ESE,112,2.0,-999.0,83,-99.99,,,0.09,Acu-Link.com,2013-02-27 01:25:00,
2013-02-26 17:40:00,32.0,27.4,29.90,SE,135,4.0,-999.0,83,-99.99,,,0.09,Acu-Link.com,2013-02-27 01:40:00,
2013-02-26 17:55:00,32.0,27.4,29.90,SE,135,2.7,-999.0,83,-99.99,,,0.09,Acu-Link.com,2013-02-27 01:55:00,
2013-02-26 18:26:00,30.2,25.7,29.89,ESE,112,3.6,-999.0,83,-99.99,,,0.09,Acu-Link.com,2013-02-27 02:26:00,
2013-02-26 18:41:00,30.2,25.4,29.89,ESE,112,3.6,-999.0,82,-99.99,,,0.09,Acu-Link.com,2013-02-27 02:41:00,
2013-02-26 18:56:00,30.2,25.1,29.89,SE,135,4.0,-999.0,81,-99.99,,,0.09,Acu-Link.com,2013-02-27 02:56:00,
2013-02-26 19:11:00,30.2,25.1,29.89,SE,135,2.7,-999.0,81,-99.99,,,0.09,Acu-Link.com,2013-02-27 03:11:00,
2013-02-26 19:27:00,30.2,24.8,29.88,WNW,292,1.6,-999.0,80,-99.99,,,0.09,Acu-Link.com,2013-02-27 03:27:00,
2013-02-26 19:42:00,30.2,24.8,29.88,West,270,4.0,-999.0,80,-99.99,,,0.09,Acu-Link.com,2013-02-27 03:42:00,
2013-02-26 19:57:00,30.2,24.8,29.89,SE,135,2.7,-999.0,80,-99.99,,,0.09,Acu-Link.com,2013-02-27 03:57:00,
2013-02-26 20:12:00,30.2,24.8,29.88,SSE,157,2.0,-999.0,80,-99.99,,,0.09,Acu-Link.com,2013-02-27 04:12:00,
2013-02-26 20:28:00,30.2,25.1,29.89,ESE,112,1.6,-999.0,81,-99.99,,,0.09,Acu-Link.com,2013-02-27 04:28:00,
2013-02-26 20:43:00,30.2,25.1,29.88,ESE,112,2.7,-999.0,81,-99.99,,,0.09,Acu-Link.com,2013-02-27 04:43:00,
2013-02-26 20:58:00,30.2,25.4,29.88,South,180,3.1,-999.0,82,-99.99,,,0.09,Acu-Link.com,2013-02-27 04:58:00,
2013-02-26 21:13:00,30.2,25.4,29.88,South,180,2.7,-999.0,82,-99.99,,,0.09,Acu-Link.com,2013-02-27 05:13:00,
2013-02-26 21:29:00,30.2,25.4,29.88,SE,135,3.1,-999.0,82,-99.99,,,0.09,Acu-Link.com,2013-02-27 05:29:00,
2013-02-26 21:44:00,30.2,24.8,29.88,North,0,2.0,-999.0,80,-99.99,,,0.09,Acu-Link.com,2013-02-27 05:44:00,
2013-02-26 21:59:00,30.2,24.8,29.88,SE,135,3.1,-999.0,80,-99.99,,,0.09,Acu-Link.com,2013-02-27 05:59:00,
2013-02-26 22:14:00,30.2,24.8,29.87,ESE,112,1.6,-999.0,80,-99.99,,,0.09,Acu-Link.com,2013-02-27 06:14:00,
2013-02-26 22:30:00,30.2,24.8,29.87,SE,135,2.0,-999.0,80,-99.99,,,0.09,Acu-Link.com,2013-02-27 06:30:00,
2013-02-26 22:45:00,30.2,24.8,29.88,SE,135,1.6,-999.0,80,-99.99,,,0.09,Acu-Link.com,2013-02-27 06:45:00,
2013-02-26 23:00:00,30.2,24.5,29.88,SE,135,2.7,-999.0,79,-99.99,,,0.09,Acu-Link.com,2013-02-27 07:00:00,
2013-02-26 23:15:00,30.2,24.5,29.88,West,270,2.7,-999.0,79,-99.99,,,0.09,Acu-Link.com,2013-02-27 07:15:00,
2013-02-26 23:31:00,28.4,23.0,29.87,ESE,112,1.6,-999.0,80,-99.99,,,0.09,Acu-Link.com,2013-02-27 07:31:00,
2013-02-26 23:46:00,28.4,23.0,29.88,South,180,1.6,-999.0,80,-99.99,,,0.09,Acu-Link.com,2013-02-27 07:46:00,